フィレンツェ の空港の天気 - METARとTAF

フィレンツェ・ペレトラ空港 ( LIRQ / FLR ) - イタリア フィレンツェ
飛行場実況気象(Metar)
観測時間10/20 19:20 CEST (10/20 17:20 UTC)
風向・風速北 3m/s
視程10km以上
天気現象
なし
気温22℃
湿度50%
気圧1020hPa
METARLIRQ 201720Z VRB05KT CAVOK 22/11 Q1020
過去の天気等 Google飛行場航空写真 Wunderground天気予報

過去48時間のMETAR

飛行場予報(TAF)
発表時間: 10/20 19:00 CEST (10/20 17:00 UTC)
予報対象時間: 20日20時 CEST ~ 21日20時 CEST
風向・風速不定 2m/s
視程10km以上
なし
21日10時 CEST ~ 21日12時 CEST に徐々に
風向・風速北東 5m/s
TAF LIRQ 201700Z 2018/2118 VRB04KT CAVOK
BECMG 2108/2110 04010KT